Portada
METAR-TAF:

METAR-TAF

Aeroports :

Bangkok, Tailàndia

latitud: 13-54-45N, longitud: 100-36-24E, altitud: 4 m

Observació

L'informe es va fer fa 12 minuts, a les 08:00 UTC
Vent 8 kt del Nord/Nord-Est, variant entre Nord/Nord-Oest i Est/Nord-Est
Temperatura 34°C
Humitat 50%
Pressió 1010 hPa
Visibilitat 10 km o més
Escasses núvols a una alçada de 3000 ft

METAR: VTBD 190800Z 02008KT 340V060 9999 FEW030 34/22 Q1010 NOSIG

Hora: 15:12 (08:12 UTC)

Pronòstic

L'informe es va fer fa 3 hores i 12 minuts, a les 05:00 UTC
Pronòstic vàlid del 19 a les 06 UTC al 20 a les 12 UTC
Vent 8 kt del Est/Nord-Est
Visibilitat 10 km o més
Escasses núvols a una alçada de 2000 ft
Evolucionant progressivament
l' 19 a les 21 UTC al 19 a les 23 UTC
Vent 5 kt del Nord
Evolucionant progressivament
l' 20 a les 00 UTC al 20 a les 02 UTC
Vent 8 kt del Est/Nord-Est

TAF: VTBD 190500Z 1906/2012 06008KT 9999 FEW020 BECMG 1921/1923 35005KT BECMG 2000/2002 06008KT

Observacions i pronòstics meteorològics de més de 4000 aeroports (METAR i TAF).

Les estacions disponibles són els punts grocs i vermells al mapa.

Posi el ratolí al punt desitjat per veure el nom de l'estació.

Feu clic per veure les observacions i els pronòstics meteorològics.

Per canviar el mapa: feu clic els botons verds amb una creu de color negre per apropar; al botó verd amb un guió per allunyar la imatge; o en les fletxes verdes per a mapes adjacents.


METAR-TAF: